sensor_id;sensor_type;location;lat;lon;timestamp;P1;durP1;ratioP1;P2;durP2;ratioP2
76850;SDS011;65824;43.726;20.692;2022-12-07T00:01:05;67.78;;;35.95;;
76850;SDS011;65824;43.726;20.692;2022-12-07T00:03:38;71.10;;;35.67;;
76850;SDS011;65824;43.726;20.692;2022-12-07T00:06:05;60.00;;;32.15;;
76850;SDS011;65824;43.726;20.692;2022-12-07T00:08:31;48.17;;;26.05;;
76850;SDS011;65824;43.726;20.692;2022-12-07T00:11:01;47.65;;;25.35;;
76850;SDS011;65824;43.726;20.692;2022-12-07T00:13:28;47.95;;;25.35;;
76850;SDS011;65824;43.726;20.692;2022-12-07T00:15:53;46.90;;;24.13;;
76850;SDS011;65824;43.726;20.692;2022-12-07T00:18:20;46.33;;;24.90;;
76850;SDS011;65824;43.726;20.692;2022-12-07T00:20:45;44.17;;;24.05;;
76850;SDS011;65824;43.726;20.692;2022-12-07T00:23:11;44.13;;;23.88;;
76850;SDS011;65824;43.726;20.692;2022-12-07T00:25:36;45.70;;;24.08;;
76850;SDS011;65824;43.726;20.692;2022-12-07T00:28:03;47.58;;;24.30;;
76850;SDS011;65824;43.726;20.692;2022-12-07T00:30:29;52.13;;;25.15;;
76850;SDS011;65824;43.726;20.692;2022-12-07T00:32:55;46.15;;;23.95;;
76850;SDS011;65824;43.726;20.692;2022-12-07T00:35:21;46.22;;;24.58;;
76850;SDS011;65824;43.726;20.692;2022-12-07T00:37:46;46.05;;;23.65;;
76850;SDS011;65824;43.726;20.692;2022-12-07T00:40:13;45.03;;;23.67;;
76850;SDS011;65824;43.726;20.692;2022-12-07T00:42:38;50.13;;;24.70;;
76850;SDS011;65824;43.726;20.692;2022-12-07T00:45:05;41.38;;;22.75;;
76850;SDS011;65824;43.726;20.692;2022-12-07T00:47:31;45.22;;;23.10;;
76850;SDS011;65824;43.726;20.692;2022-12-07T00:49:57;41.40;;;21.80;;
76850;SDS011;65824;43.726;20.692;2022-12-07T00:52:23;41.63;;;21.55;;
76850;SDS011;65824;43.726;20.692;2022-12-07T00:54:50;42.30;;;21.65;;
76850;SDS011;65824;43.726;20.692;2022-12-07T00:57:16;45.90;;;21.77;;
76850;SDS011;65824;43.726;20.692;2022-12-07T00:59:42;40.28;;;20.45;;
76850;SDS011;65824;43.726;20.692;2022-12-07T01:02:08;43.17;;;22.73;;
76850;SDS011;65824;43.726;20.692;2022-12-07T01:04:34;42.88;;;21.98;;
76850;SDS011;65824;43.726;20.692;2022-12-07T01:07:00;38.65;;;19.83;;
76850;SDS011;65824;43.726;20.692;2022-12-07T01:09:26;40.15;;;20.80;;
76850;SDS011;65824;43.726;20.692;2022-12-07T01:11:51;44.33;;;21.95;;
76850;SDS011;65824;43.726;20.692;2022-12-07T01:14:17;37.58;;;20.65;;
76850;SDS011;65824;43.726;20.692;2022-12-07T01:16:44;37.88;;;20.65;;
76850;SDS011;65824;43.726;20.692;2022-12-07T01:19:10;40.08;;;20.52;;
76850;SDS011;65824;43.726;20.692;2022-12-07T01:21:35;42.28;;;22.23;;
76850;SDS011;65824;43.726;20.692;2022-12-07T01:24:04;43.85;;;21.52;;
76850;SDS011;65824;43.726;20.692;2022-12-07T01:26:31;41.90;;;20.45;;
76850;SDS011;65824;43.726;20.692;2022-12-07T01:28:56;37.25;;;19.23;;
76850;SDS011;65824;43.726;20.692;2022-12-07T01:31:27;38.97;;;19.65;;
76850;SDS011;65824;43.726;20.692;2022-12-07T01:33:54;39.53;;;20.17;;
76850;SDS011;65824;43.726;20.692;2022-12-07T01:36:29;41.35;;;20.35;;
76850;SDS011;65824;43.726;20.692;2022-12-07T01:39:01;38.25;;;19.50;;
76850;SDS011;65824;43.726;20.692;2022-12-07T01:41:29;38.70;;;19.35;;
76850;SDS011;65824;43.726;20.692;2022-12-07T01:46:33;37.78;;;20.13;;
76850;SDS011;65824;43.726;20.692;2022-12-07T01:48:58;42.28;;;18.80;;
76850;SDS011;65824;43.726;20.692;2022-12-07T01:51:24;40.22;;;18.55;;
76850;SDS011;65824;43.726;20.692;2022-12-07T01:53:54;37.97;;;19.27;;
76850;SDS011;65824;43.726;20.692;2022-12-07T01:56:20;39.50;;;19.55;;
76850;SDS011;65824;43.726;20.692;2022-12-07T01:58:49;36.65;;;18.65;;
76850;SDS011;65824;43.726;20.692;2022-12-07T02:01:19;40.13;;;19.92;;
76850;SDS011;65824;43.726;20.692;2022-12-07T02:03:44;40.38;;;19.13;;
76850;SDS011;65824;43.726;20.692;2022-12-07T02:06:12;41.78;;;20.08;;
76850;SDS011;65824;43.726;20.692;2022-12-07T02:08:39;41.60;;;19.75;;
76850;SDS011;65824;43.726;20.692;2022-12-07T02:11:05;40.50;;;19.20;;
76850;SDS011;65824;43.726;20.692;2022-12-07T02:13:33;42.28;;;19.05;;
76850;SDS011;65824;43.726;20.692;2022-12-07T02:24:56;42.50;;;18.55;;
76850;SDS011;65824;43.726;20.692;2022-12-07T02:27:47;36.55;;;17.70;;
76850;SDS011;65824;43.726;20.692;2022-12-07T02:30:28;36.75;;;16.80;;
76850;SDS011;65824;43.726;20.692;2022-12-07T02:35:50;39.38;;;17.60;;
76850;SDS011;65824;43.726;20.692;2022-12-07T02:38:19;37.70;;;17.00;;
76850;SDS011;65824;43.726;20.692;2022-12-07T02:40:53;38.95;;;17.35;;
76850;SDS011;65824;43.726;20.692;2022-12-07T02:43:35;32.00;;;15.85;;
76850;SDS011;65824;43.726;20.692;2022-12-07T02:46:08;34.08;;;16.13;;
76850;SDS011;65824;43.726;20.692;2022-12-07T02:48:36;38.15;;;16.55;;
76850;SDS011;65824;43.726;20.692;2022-12-07T02:51:06;34.10;;;16.00;;
76850;SDS011;65824;43.726;20.692;2022-12-07T02:56:13;37.40;;;16.15;;
76850;SDS011;65824;43.726;20.692;2022-12-07T03:06:54;33.00;;;16.20;;
76850;SDS011;65824;43.726;20.692;2022-12-07T03:09:27;38.88;;;17.25;;
76850;SDS011;65824;43.726;20.692;2022-12-07T03:12:18;37.22;;;16.40;;
76850;SDS011;65824;43.726;20.692;2022-12-07T03:14:49;34.08;;;16.38;;
76850;SDS011;65824;43.726;20.692;2022-12-07T03:17:25;33.72;;;15.80;;
76850;SDS011;65824;43.726;20.692;2022-12-07T03:19:52;34.13;;;15.77;;
76850;SDS011;65824;43.726;20.692;2022-12-07T03:22:23;35.05;;;16.40;;
76850;SDS011;65824;43.726;20.692;2022-12-07T03:27:28;36.13;;;15.70;;
76850;SDS011;65824;43.726;20.692;2022-12-07T03:30:07;33.13;;;16.90;;
76850;SDS011;65824;43.726;20.692;2022-12-07T03:35:14;35.00;;;16.00;;
76850;SDS011;65824;43.726;20.692;2022-12-07T03:37:57;35.30;;;16.35;;
76850;SDS011;65824;43.726;20.692;2022-12-07T03:40:29;35.45;;;16.48;;
76850;SDS011;65824;43.726;20.692;2022-12-07T03:43:19;33.47;;;15.43;;
76850;SDS011;65824;43.726;20.692;2022-12-07T03:45:51;35.20;;;15.73;;
76850;SDS011;65824;43.726;20.692;2022-12-07T03:48:41;35.47;;;15.07;;
76850;SDS011;65824;43.726;20.692;2022-12-07T03:52:03;33.28;;;15.95;;
76850;SDS011;65824;43.726;20.692;2022-12-07T03:54:32;33.53;;;15.50;;
76850;SDS011;65824;43.726;20.692;2022-12-07T03:56:59;35.70;;;15.20;;
76850;SDS011;65824;43.726;20.692;2022-12-07T03:59:26;36.35;;;16.48;;
76850;SDS011;65824;43.726;20.692;2022-12-07T04:01:54;39.15;;;16.42;;
76850;SDS011;65824;43.726;20.692;2022-12-07T04:04:21;34.97;;;15.82;;
76850;SDS011;65824;43.726;20.692;2022-12-07T04:06:47;36.55;;;15.38;;
76850;SDS011;65824;43.726;20.692;2022-12-07T04:09:13;36.22;;;15.35;;
76850;SDS011;65824;43.726;20.692;2022-12-07T04:11:39;36.10;;;15.90;;
76850;SDS011;65824;43.726;20.692;2022-12-07T04:14:05;34.80;;;14.93;;
76850;SDS011;65824;43.726;20.692;2022-12-07T04:19:19;31.88;;;15.32;;
76850;SDS011;65824;43.726;20.692;2022-12-07T04:21:45;34.78;;;15.75;;
76850;SDS011;65824;43.726;20.692;2022-12-07T04:24:14;33.58;;;14.52;;
76850;SDS011;65824;43.726;20.692;2022-12-07T04:26:40;36.10;;;15.77;;
76850;SDS011;65824;43.726;20.692;2022-12-07T04:29:08;35.78;;;16.40;;
76850;SDS011;65824;43.726;20.692;2022-12-07T04:31:34;32.42;;;14.75;;
76850;SDS011;65824;43.726;20.692;2022-12-07T04:34:00;32.50;;;15.82;;
76850;SDS011;65824;43.726;20.692;2022-12-07T04:36:26;30.58;;;14.65;;
76850;SDS011;65824;43.726;20.692;2022-12-07T04:38:53;30.75;;;14.60;;
76850;SDS011;65824;43.726;20.692;2022-12-07T04:41:19;27.50;;;14.00;;
76850;SDS011;65824;43.726;20.692;2022-12-07T04:43:52;30.58;;;13.10;;
76850;SDS011;65824;43.726;20.692;2022-12-07T04:46:19;32.33;;;14.68;;
76850;SDS011;65824;43.726;20.692;2022-12-07T04:48:44;36.45;;;17.05;;
76850;SDS011;65824;43.726;20.692;2022-12-07T04:51:09;34.75;;;15.85;;
76850;SDS011;65824;43.726;20.692;2022-12-07T04:53:36;33.20;;;15.30;;
76850;SDS011;65824;43.726;20.692;2022-12-07T04:56:01;31.00;;;14.82;;
76850;SDS011;65824;43.726;20.692;2022-12-07T04:58:27;29.83;;;14.05;;
76850;SDS011;65824;43.726;20.692;2022-12-07T05:00:54;31.92;;;15.60;;
76850;SDS011;65824;43.726;20.692;2022-12-07T05:03:20;33.72;;;15.57;;
76850;SDS011;65824;43.726;20.692;2022-12-07T05:05:45;55.80;;;22.83;;
76850;SDS011;65824;43.726;20.692;2022-12-07T05:08:16;39.17;;;17.17;;
76850;SDS011;65824;43.726;20.692;2022-12-07T05:10:41;30.63;;;14.57;;
76850;SDS011;65824;43.726;20.692;2022-12-07T05:13:07;30.23;;;13.75;;
76850;SDS011;65824;43.726;20.692;2022-12-07T05:15:32;26.63;;;12.88;;
76850;SDS011;65824;43.726;20.692;2022-12-07T05:17:58;31.10;;;15.00;;
76850;SDS011;65824;43.726;20.692;2022-12-07T05:20:23;27.00;;;13.48;;
76850;SDS011;65824;43.726;20.692;2022-12-07T05:22:51;29.08;;;13.45;;
76850;SDS011;65824;43.726;20.692;2022-12-07T05:25:18;29.67;;;13.88;;
76850;SDS011;65824;43.726;20.692;2022-12-07T05:27:43;30.40;;;14.95;;
76850;SDS011;65824;43.726;20.692;2022-12-07T05:30:10;31.70;;;14.30;;
76850;SDS011;65824;43.726;20.692;2022-12-07T05:32:37;27.33;;;14.60;;
76850;SDS011;65824;43.726;20.692;2022-12-07T05:35:02;28.98;;;14.05;;
76850;SDS011;65824;43.726;20.692;2022-12-07T05:37:28;28.67;;;14.27;;
76850;SDS011;65824;43.726;20.692;2022-12-07T05:39:55;31.08;;;16.33;;
76850;SDS011;65824;43.726;20.692;2022-12-07T05:42:20;32.15;;;14.75;;
76850;SDS011;65824;43.726;20.692;2022-12-07T05:44:46;32.13;;;16.30;;
76850;SDS011;65824;43.726;20.692;2022-12-07T05:47:12;34.55;;;15.85;;
76850;SDS011;65824;43.726;20.692;2022-12-07T05:49:38;31.65;;;15.55;;
76850;SDS011;65824;43.726;20.692;2022-12-07T05:52:04;31.90;;;16.33;;
76850;SDS011;65824;43.726;20.692;2022-12-07T05:54:30;35.42;;;17.27;;
76850;SDS011;65824;43.726;20.692;2022-12-07T05:56:56;30.50;;;16.92;;
76850;SDS011;65824;43.726;20.692;2022-12-07T05:59:22;33.53;;;16.88;;
76850;SDS011;65824;43.726;20.692;2022-12-07T06:01:48;34.58;;;16.33;;
76850;SDS011;65824;43.726;20.692;2022-12-07T06:04:14;35.22;;;17.40;;
76850;SDS011;65824;43.726;20.692;2022-12-07T06:06:40;36.65;;;16.92;;
76850;SDS011;65824;43.726;20.692;2022-12-07T06:09:06;32.80;;;16.50;;
76850;SDS011;65824;43.726;20.692;2022-12-07T06:11:34;33.42;;;16.75;;
76850;SDS011;65824;43.726;20.692;2022-12-07T06:14:18;33.83;;;17.45;;
76850;SDS011;65824;43.726;20.692;2022-12-07T06:16:43;42.72;;;20.15;;
76850;SDS011;65824;43.726;20.692;2022-12-07T06:19:09;42.42;;;21.25;;
76850;SDS011;65824;43.726;20.692;2022-12-07T06:21:35;37.85;;;18.52;;
76850;SDS011;65824;43.726;20.692;2022-12-07T06:24:01;37.35;;;18.48;;
76850;SDS011;65824;43.726;20.692;2022-12-07T06:26:27;35.50;;;18.02;;
76850;SDS011;65824;43.726;20.692;2022-12-07T06:28:55;33.05;;;16.95;;
76850;SDS011;65824;43.726;20.692;2022-12-07T06:31:21;40.70;;;19.80;;
76850;SDS011;65824;43.726;20.692;2022-12-07T06:33:47;42.95;;;20.42;;
76850;SDS011;65824;43.726;20.692;2022-12-07T06:36:12;37.72;;;19.05;;
76850;SDS011;65824;43.726;20.692;2022-12-07T06:38:39;42.58;;;20.67;;
76850;SDS011;65824;43.726;20.692;2022-12-07T06:41:05;45.38;;;20.00;;
76850;SDS011;65824;43.726;20.692;2022-12-07T06:43:32;43.97;;;19.25;;
76850;SDS011;65824;43.726;20.692;2022-12-07T06:45:58;40.00;;;19.45;;
76850;SDS011;65824;43.726;20.692;2022-12-07T06:48:23;35.28;;;16.77;;
76850;SDS011;65824;43.726;20.692;2022-12-07T06:50:49;36.63;;;17.08;;
76850;SDS011;65824;43.726;20.692;2022-12-07T06:53:14;31.77;;;16.13;;
76850;SDS011;65824;43.726;20.692;2022-12-07T06:55:40;30.42;;;15.43;;
76850;SDS011;65824;43.726;20.692;2022-12-07T06:58:06;30.60;;;14.05;;
76850;SDS011;65824;43.726;20.692;2022-12-07T07:00:33;31.35;;;15.18;;
76850;SDS011;65824;43.726;20.692;2022-12-07T07:03:00;33.75;;;16.20;;
76850;SDS011;65824;43.726;20.692;2022-12-07T07:05:26;30.45;;;15.85;;
76850;SDS011;65824;43.726;20.692;2022-12-07T07:07:51;33.67;;;16.13;;
76850;SDS011;65824;43.726;20.692;2022-12-07T07:10:18;28.77;;;15.57;;
76850;SDS011;65824;43.726;20.692;2022-12-07T07:12:45;33.72;;;17.83;;
76850;SDS011;65824;43.726;20.692;2022-12-07T07:15:10;35.90;;;16.77;;
76850;SDS011;65824;43.726;20.692;2022-12-07T07:17:37;36.63;;;19.80;;
76850;SDS011;65824;43.726;20.692;2022-12-07T07:20:06;33.35;;;18.27;;
76850;SDS011;65824;43.726;20.692;2022-12-07T07:22:32;36.17;;;17.83;;
76850;SDS011;65824;43.726;20.692;2022-12-07T07:24:58;29.63;;;16.80;;
76850;SDS011;65824;43.726;20.692;2022-12-07T07:27:23;34.08;;;17.05;;
76850;SDS011;65824;43.726;20.692;2022-12-07T07:29:49;107.35;;;40.72;;
76850;SDS011;65824;43.726;20.692;2022-12-07T07:32:15;37.67;;;17.92;;
76850;SDS011;65824;43.726;20.692;2022-12-07T07:34:41;33.55;;;15.60;;
76850;SDS011;65824;43.726;20.692;2022-12-07T07:37:07;37.47;;;18.50;;
76850;SDS011;65824;43.726;20.692;2022-12-07T07:39:33;32.38;;;16.85;;
76850;SDS011;65824;43.726;20.692;2022-12-07T07:42:00;41.63;;;19.38;;
76850;SDS011;65824;43.726;20.692;2022-12-07T07:44:25;39.80;;;18.45;;
76850;SDS011;65824;43.726;20.692;2022-12-07T07:46:51;45.10;;;19.85;;
76850;SDS011;65824;43.726;20.692;2022-12-07T07:49:17;44.40;;;22.27;;
76850;SDS011;65824;43.726;20.692;2022-12-07T07:51:43;59.28;;;24.25;;
76850;SDS011;65824;43.726;20.692;2022-12-07T07:54:10;41.92;;;20.30;;
76850;SDS011;65824;43.726;20.692;2022-12-07T07:56:35;39.80;;;20.05;;
76850;SDS011;65824;43.726;20.692;2022-12-07T07:59:00;40.80;;;21.40;;
76850;SDS011;65824;43.726;20.692;2022-12-07T08:01:26;44.67;;;21.88;;
76850;SDS011;65824;43.726;20.692;2022-12-07T08:03:51;53.38;;;26.90;;
76850;SDS011;65824;43.726;20.692;2022-12-07T08:06:18;43.42;;;22.42;;
76850;SDS011;65824;43.726;20.692;2022-12-07T08:08:44;41.42;;;19.40;;
76850;SDS011;65824;43.726;20.692;2022-12-07T08:11:09;39.80;;;19.63;;
76850;SDS011;65824;43.726;20.692;2022-12-07T08:13:39;35.72;;;17.50;;
76850;SDS011;65824;43.726;20.692;2022-12-07T08:16:05;34.17;;;17.48;;
76850;SDS011;65824;43.726;20.692;2022-12-07T08:18:36;37.05;;;17.77;;
76850;SDS011;65824;43.726;20.692;2022-12-07T08:21:03;39.13;;;19.20;;
76850;SDS011;65824;43.726;20.692;2022-12-07T08:23:29;40.13;;;18.83;;
76850;SDS011;65824;43.726;20.692;2022-12-07T08:26:06;39.35;;;19.95;;
76850;SDS011;65824;43.726;20.692;2022-12-07T08:28:33;38.83;;;18.80;;
76850;SDS011;65824;43.726;20.692;2022-12-07T08:30:59;41.25;;;18.90;;
76850;SDS011;65824;43.726;20.692;2022-12-07T08:33:25;40.53;;;21.23;;
76850;SDS011;65824;43.726;20.692;2022-12-07T08:35:51;37.50;;;19.05;;
76850;SDS011;65824;43.726;20.692;2022-12-07T08:38:16;43.95;;;20.33;;
76850;SDS011;65824;43.726;20.692;2022-12-07T08:40:42;41.80;;;20.67;;
76850;SDS011;65824;43.726;20.692;2022-12-07T08:43:08;44.20;;;21.00;;
76850;SDS011;65824;43.726;20.692;2022-12-07T08:45:34;46.90;;;21.52;;
76850;SDS011;65824;43.726;20.692;2022-12-07T08:48:07;42.88;;;19.77;;
76850;SDS011;65824;43.726;20.692;2022-12-07T08:50:35;43.28;;;21.80;;
76850;SDS011;65824;43.726;20.692;2022-12-07T08:53:02;39.28;;;20.15;;
76850;SDS011;65824;43.726;20.692;2022-12-07T08:55:30;41.00;;;19.90;;
76850;SDS011;65824;43.726;20.692;2022-12-07T08:57:59;48.58;;;22.83;;
76850;SDS011;65824;43.726;20.692;2022-12-07T09:00:26;40.10;;;20.50;;
76850;SDS011;65824;43.726;20.692;2022-12-07T09:02:53;39.88;;;19.35;;
76850;SDS011;65824;43.726;20.692;2022-12-07T09:05:18;41.95;;;21.33;;
76850;SDS011;65824;43.726;20.692;2022-12-07T09:07:44;43.75;;;20.98;;
76850;SDS011;65824;43.726;20.692;2022-12-07T09:10:12;44.92;;;20.92;;
76850;SDS011;65824;43.726;20.692;2022-12-07T09:12:37;46.83;;;22.25;;
76850;SDS011;65824;43.726;20.692;2022-12-07T09:15:03;45.50;;;20.67;;
76850;SDS011;65824;43.726;20.692;2022-12-07T09:17:31;44.63;;;21.45;;
76850;SDS011;65824;43.726;20.692;2022-12-07T09:19:58;47.55;;;20.45;;
76850;SDS011;65824;43.726;20.692;2022-12-07T09:22:23;44.40;;;20.42;;
76850;SDS011;65824;43.726;20.692;2022-12-07T09:24:49;42.05;;;20.23;;
76850;SDS011;65824;43.726;20.692;2022-12-07T09:27:14;59.80;;;28.13;;
76850;SDS011;65824;43.726;20.692;2022-12-07T09:29:43;49.47;;;24.10;;
76850;SDS011;65824;43.726;20.692;2022-12-07T09:32:08;40.60;;;21.05;;
76850;SDS011;65824;43.726;20.692;2022-12-07T09:34:34;43.13;;;21.27;;
76850;SDS011;65824;43.726;20.692;2022-12-07T09:37:00;42.20;;;22.73;;
76850;SDS011;65824;43.726;20.692;2022-12-07T09:39:26;45.83;;;22.70;;
76850;SDS011;65824;43.726;20.692;2022-12-07T09:41:51;48.15;;;22.75;;
76850;SDS011;65824;43.726;20.692;2022-12-07T09:44:20;41.25;;;20.75;;
76850;SDS011;65824;43.726;20.692;2022-12-07T09:46:51;46.30;;;20.77;;
76850;SDS011;65824;43.726;20.692;2022-12-07T09:49:19;41.10;;;21.52;;
76850;SDS011;65824;43.726;20.692;2022-12-07T09:54:28;45.25;;;21.83;;
76850;SDS011;65824;43.726;20.692;2022-12-07T09:56:54;44.42;;;22.10;;
76850;SDS011;65824;43.726;20.692;2022-12-07T09:59:20;48.95;;;22.88;;
76850;SDS011;65824;43.726;20.692;2022-12-07T10:01:46;48.47;;;22.88;;
76850;SDS011;65824;43.726;20.692;2022-12-07T10:04:25;46.85;;;25.20;;
76850;SDS011;65824;43.726;20.692;2022-12-07T10:06:51;54.83;;;25.30;;
76850;SDS011;65824;43.726;20.692;2022-12-07T10:09:21;52.33;;;24.63;;
76850;SDS011;65824;43.726;20.692;2022-12-07T10:12:09;49.15;;;25.40;;
76850;SDS011;65824;43.726;20.692;2022-12-07T10:14:38;49.30;;;24.08;;
76850;SDS011;65824;43.726;20.692;2022-12-07T10:17:29;51.10;;;23.75;;
76850;SDS011;65824;43.726;20.692;2022-12-07T10:23:03;44.35;;;21.73;;
76850;SDS011;65824;43.726;20.692;2022-12-07T10:25:32;40.90;;;20.35;;
76850;SDS011;65824;43.726;20.692;2022-12-07T10:28:01;41.03;;;21.63;;
76850;SDS011;65824;43.726;20.692;2022-12-07T10:30:28;44.95;;;22.27;;
76850;SDS011;65824;43.726;20.692;2022-12-07T10:32:55;46.35;;;23.23;;
76850;SDS011;65824;43.726;20.692;2022-12-07T10:35:29;41.47;;;20.52;;
76850;SDS011;65824;43.726;20.692;2022-12-07T10:37:56;45.65;;;21.35;;
76850;SDS011;65824;43.726;20.692;2022-12-07T10:40:36;43.40;;;21.20;;
76850;SDS011;65824;43.726;20.692;2022-12-07T10:45:32;43.35;;;20.35;;
76850;SDS011;65824;43.726;20.692;2022-12-07T10:48:06;43.90;;;21.45;;
76850;SDS011;65824;43.726;20.692;2022-12-07T10:56:33;45.53;;;21.83;;
76850;SDS011;65824;43.726;20.692;2022-12-07T11:07:29;40.53;;;19.25;;
76850;SDS011;65824;43.726;20.692;2022-12-07T11:26:19;38.45;;;17.80;;
76850;SDS011;65824;43.726;20.692;2022-12-07T11:34:49;46.03;;;21.02;;
76850;SDS011;65824;43.726;20.692;2022-12-07T11:37:44;46.05;;;20.63;;
76850;SDS011;65824;43.726;20.692;2022-12-07T11:40:15;45.03;;;20.63;;
76850;SDS011;65824;43.726;20.692;2022-12-07T11:42:59;47.70;;;22.02;;
76850;SDS011;65824;43.726;20.692;2022-12-07T11:45:37;45.95;;;22.45;;
76850;SDS011;65824;43.726;20.692;2022-12-07T11:48:18;47.03;;;20.42;;
76850;SDS011;65824;43.726;20.692;2022-12-07T11:51:06;42.47;;;20.13;;
76850;SDS011;65824;43.726;20.692;2022-12-07T11:53:37;45.53;;;20.52;;
76850;SDS011;65824;43.726;20.692;2022-12-07T11:56:12;45.72;;;22.17;;
76850;SDS011;65824;43.726;20.692;2022-12-07T11:58:51;46.72;;;23.05;;
76850;SDS011;65824;43.726;20.692;2022-12-07T12:04:31;51.45;;;25.10;;
76850;SDS011;65824;43.726;20.692;2022-12-07T12:07:03;48.05;;;23.52;;
76850;SDS011;65824;43.726;20.692;2022-12-07T12:09:33;45.85;;;22.48;;
76850;SDS011;65824;43.726;20.692;2022-12-07T12:20:45;42.70;;;22.35;;
76850;SDS011;65824;43.726;20.692;2022-12-07T12:23:22;42.25;;;20.35;;
76850;SDS011;65824;43.726;20.692;2022-12-07T12:25:55;44.22;;;19.95;;
76850;SDS011;65824;43.726;20.692;2022-12-07T12:28:41;47.53;;;22.80;;
76850;SDS011;65824;43.726;20.692;2022-12-07T12:33:52;42.72;;;21.20;;
76850;SDS011;65824;43.726;20.692;2022-12-07T12:50:22;52.28;;;24.48;;
76850;SDS011;65824;43.726;20.692;2022-12-07T12:52:56;56.53;;;27.98;;
76850;SDS011;65824;43.726;20.692;2022-12-07T12:58:28;60.90;;;27.17;;
76850;SDS011;65824;43.726;20.692;2022-12-07T13:03:59;56.47;;;28.70;;
76850;SDS011;65824;43.726;20.692;2022-12-07T13:08:51;54.50;;;26.58;;
76850;SDS011;65824;43.726;20.692;2022-12-07T13:11:19;53.22;;;26.45;;
76850;SDS011;65824;43.726;20.692;2022-12-07T13:13:50;53.08;;;27.08;;
76850;SDS011;65824;43.726;20.692;2022-12-07T13:18:41;53.28;;;26.17;;
76850;SDS011;65824;43.726;20.692;2022-12-07T13:23:57;64.40;;;30.23;;
76850;SDS011;65824;43.726;20.692;2022-12-07T13:29:09;54.70;;;27.17;;
76850;SDS011;65824;43.726;20.692;2022-12-07T13:31:37;55.25;;;25.35;;
76850;SDS011;65824;43.726;20.692;2022-12-07T13:36:59;54.45;;;25.23;;
76850;SDS011;65824;43.726;20.692;2022-12-07T13:39:46;55.13;;;25.48;;
76850;SDS011;65824;43.726;20.692;2022-12-07T13:42:18;55.05;;;25.70;;
76850;SDS011;65824;43.726;20.692;2022-12-07T13:44:47;56.25;;;25.13;;
76850;SDS011;65824;43.726;20.692;2022-12-07T13:47:14;51.10;;;23.35;;
76850;SDS011;65824;43.726;20.692;2022-12-07T13:49:56;56.30;;;27.05;;
76850;SDS011;65824;43.726;20.692;2022-12-07T13:52:23;58.10;;;26.27;;
76850;SDS011;65824;43.726;20.692;2022-12-07T13:54:57;59.97;;;28.63;;
76850;SDS011;65824;43.726;20.692;2022-12-07T13:57:26;56.97;;;25.33;;
76850;SDS011;65824;43.726;20.692;2022-12-07T13:59:59;58.63;;;26.92;;
76850;SDS011;65824;43.726;20.692;2022-12-07T14:05:13;56.80;;;24.48;;
76850;SDS011;65824;43.726;20.692;2022-12-07T14:07:52;57.70;;;24.38;;
76850;SDS011;65824;43.726;20.692;2022-12-07T14:10:25;54.83;;;25.40;;
76850;SDS011;65824;43.726;20.692;2022-12-07T14:12:52;63.75;;;27.63;;
76850;SDS011;65824;43.726;20.692;2022-12-07T14:15:19;59.75;;;28.75;;
76850;SDS011;65824;43.726;20.692;2022-12-07T14:17:50;55.35;;;26.02;;
76850;SDS011;65824;43.726;20.692;2022-12-07T14:23:00;57.75;;;29.17;;
76850;SDS011;65824;43.726;20.692;2022-12-07T14:25:34;59.55;;;28.40;;
76850;SDS011;65824;43.726;20.692;2022-12-07T14:28:23;58.28;;;27.27;;
76850;SDS011;65824;43.726;20.692;2022-12-07T14:30:54;55.05;;;27.50;;
76850;SDS011;65824;43.726;20.692;2022-12-07T14:33:19;56.30;;;27.20;;
76850;SDS011;65824;43.726;20.692;2022-12-07T14:35:47;51.55;;;25.08;;
76850;SDS011;65824;43.726;20.692;2022-12-07T14:38:12;53.65;;;23.88;;
76850;SDS011;65824;43.726;20.692;2022-12-07T14:40:39;44.05;;;23.25;;
76850;SDS011;65824;43.726;20.692;2022-12-07T14:43:05;52.03;;;25.00;;
76850;SDS011;65824;43.726;20.692;2022-12-07T14:45:34;47.58;;;24.30;;
76850;SDS011;65824;43.726;20.692;2022-12-07T14:47:59;47.22;;;23.92;;
76850;SDS011;65824;43.726;20.692;2022-12-07T14:50:29;42.78;;;22.85;;
76850;SDS011;65824;43.726;20.692;2022-12-07T14:52:56;45.92;;;21.58;;
76850;SDS011;65824;43.726;20.692;2022-12-07T14:57:54;45.42;;;23.02;;
76850;SDS011;65824;43.726;20.692;2022-12-07T15:00:21;52.17;;;25.83;;
76850;SDS011;65824;43.726;20.692;2022-12-07T15:02:49;45.15;;;20.48;;
76850;SDS011;65824;43.726;20.692;2022-12-07T15:05:15;40.63;;;18.63;;
76850;SDS011;65824;43.726;20.692;2022-12-07T15:07:43;42.83;;;19.77;;
76850;SDS011;65824;43.726;20.692;2022-12-07T15:13:05;39.60;;;19.13;;
76850;SDS011;65824;43.726;20.692;2022-12-07T15:15:51;35.30;;;17.52;;
76850;SDS011;65824;43.726;20.692;2022-12-07T15:18:18;35.67;;;17.35;;
76850;SDS011;65824;43.726;20.692;2022-12-07T15:20:44;40.50;;;18.30;;
76850;SDS011;65824;43.726;20.692;2022-12-07T15:23:10;33.40;;;17.63;;
76850;SDS011;65824;43.726;20.692;2022-12-07T15:25:40;38.53;;;17.48;;
76850;SDS011;65824;43.726;20.692;2022-12-07T15:28:06;32.67;;;15.45;;
76850;SDS011;65824;43.726;20.692;2022-12-07T15:30:31;34.95;;;14.68;;
76850;SDS011;65824;43.726;20.692;2022-12-07T15:32:57;27.80;;;13.60;;
76850;SDS011;65824;43.726;20.692;2022-12-07T15:35:22;29.42;;;13.85;;
76850;SDS011;65824;43.726;20.692;2022-12-07T15:37:49;25.58;;;13.48;;
76850;SDS011;65824;43.726;20.692;2022-12-07T15:40:14;25.25;;;12.80;;
76850;SDS011;65824;43.726;20.692;2022-12-07T15:42:43;25.38;;;12.15;;
76850;SDS011;65824;43.726;20.692;2022-12-07T15:45:08;22.27;;;10.73;;
76850;SDS011;65824;43.726;20.692;2022-12-07T15:47:38;20.70;;;10.52;;
76850;SDS011;65824;43.726;20.692;2022-12-07T15:50:06;21.80;;;11.25;;
76850;SDS011;65824;43.726;20.692;2022-12-07T15:52:34;22.52;;;11.73;;
76850;SDS011;65824;43.726;20.692;2022-12-07T15:55:03;19.23;;;10.27;;
76850;SDS011;65824;43.726;20.692;2022-12-07T15:57:29;21.55;;;9.65;;
76850;SDS011;65824;43.726;20.692;2022-12-07T15:59:55;16.67;;;8.32;;
76850;SDS011;65824;43.726;20.692;2022-12-07T16:02:20;15.00;;;7.68;;
76850;SDS011;65824;43.726;20.692;2022-12-07T16:04:48;16.08;;;8.15;;
76850;SDS011;65824;43.726;20.692;2022-12-07T16:07:15;12.25;;;7.38;;
76850;SDS011;65824;43.726;20.692;2022-12-07T16:09:41;14.88;;;7.25;;
76850;SDS011;65824;43.726;20.692;2022-12-07T16:12:07;14.30;;;7.15;;
76850;SDS011;65824;43.726;20.692;2022-12-07T16:14:33;14.80;;;6.90;;
76850;SDS011;65824;43.726;20.692;2022-12-07T16:16:59;13.95;;;7.50;;
76850;SDS011;65824;43.726;20.692;2022-12-07T16:19:26;16.67;;;9.18;;
76850;SDS011;65824;43.726;20.692;2022-12-07T16:21:52;15.48;;;9.00;;
76850;SDS011;65824;43.726;20.692;2022-12-07T16:24:19;11.85;;;7.25;;
76850;SDS011;65824;43.726;20.692;2022-12-07T16:26:44;12.35;;;6.28;;
76850;SDS011;65824;43.726;20.692;2022-12-07T16:29:13;12.02;;;6.63;;
76850;SDS011;65824;43.726;20.692;2022-12-07T16:31:39;12.00;;;5.88;;
76850;SDS011;65824;43.726;20.692;2022-12-07T16:34:04;12.73;;;6.60;;